Terminal Aerodrome Forecast
Issued by NWS

Home | Current Version | Previous Version | Text Only | Print | Product List | Glossary On
Versions: 1 2 3 4 5 6 7 8 9 10 11 12 13 14
000
FTUS46 KSEW 181732
TAFBLI
TAF
KBLI 181732Z 1818/1918 14019G31KT 5SM -RA FEW027 SCT040 OVC060
     FM182200 16015G22KT P6SM -SHRA SCT030 OVC060
     FM190300 17010KT P6SM -SHRA BKN015 OVC030
     FM190600 16009G15KT 5SM -SHRA BR OVC020=

USA.gov is the U.S. government's official web portal to all federal, state and local government web resources and services.